Terminal Aerodrome Forecast
Issued by NWS Upton, NY

Home | Current Version | Previous Version | Text Only | Print | Product List | Glossary On
Versions: 1 2 3 4 5 6 7 8 9 10 11 12 13 14 15 16 17 18 19 20 21 22 23 24 25 26 27 28 29 30 31 32 33
127
FTUS41 KOKX 091140
TAFLGA
TAF
KLGA 091140Z 0912/1012 27015G22KT P6SM SCT060
     FM091300 29020G25KT P6SM SCT050
     FM091500 30021G29KT P6SM BKN040
     FM100300 30013G24KT P6SM SCT120
     FM100600 30011G20KT P6SM SCT100 BKN200=

USA.gov is the U.S. government's official web portal to all federal, state and local government web resources and services.